Dades meteomassalio
Diari Summary for Febrer 4, 2017 Units:  English    Metric   Both
« Previous Day
Next Day »
Diari Semanal Mensual Anual Personalitzat
  Maxima: Minima: Mijana:
Temperatura: TemperatureC °F 7.7 °F 12.7 °F
Rosada: DewpointC °F 5.4 °F 8.3 °F
Humitat: Humidity % 62 % 75 %
Velocitat del vent: WindSpeedKMH mph 0.0 mph 5.9 mph
Racha vent: WindSpeedGustKMH mph - -
Vent:- - West
Pressio: PressurehPa in 1010.4 in -
Pluja: 0.0 in    
Historical Graphs
 
 
Tabular Data for Febrer 4, 2017
Time Temperature Dew Point Pressure Wind Wind Speed Wind Gust Humidity Rainfall Rate (Hourly) solar Conditions
TemperatureC °F DewpointC °F PressurehPa in Calm     Humidity % HourlyPrecipMM in SolarRadiationWatts/m^2 W/m2 Conditions
00:04 8.2 °F 5.5 °F 1014.1 in Calm     83 % 0.0 in 0.0 W/m2 RA
00:09 8.2 °F 5.6 °F 1014.1 in Calm     84 % 0.0 in 0.0 W/m2 CLR
00:14 8.1 °F 5.5 °F 1014.1 in Calm     84 % 0.0 in 0.0 W/m2 CLR
00:19 7.9 °F 5.6 °F 1014.1 in Calm     85 % 0.0 in 0.0 W/m2 CLR
00:24 7.9 °F 5.5 °F 1013.8 in Calm     85 % 0.0 in 0.0 W/m2 CLR
00:29 7.8 °F 5.4 °F 1013.8 in Calm     85 % 0.0 in 0.0 W/m2 CLR
00:34 7.7 °F 5.5 °F 1013.8 in Calm     86 % 0.0 in 0.0 W/m2 CLR
00:39 8.1 °F 5.7 °F 1013.4 in Calm     85 % 0.0 in 0.0 W/m2 CLR
00:44 8.1 °F 5.7 °F 1013.4 in SSW 9.3 mph 9.3 mph 85 % 0.0 in 0.0 W/m2 CLR
00:49 8.2 °F 5.7 °F 1013.1 in SSW 5.6 mph 5.6 mph 84 % 0.0 in 0.0 W/m2 CLR
00:54 8.4 °F 5.7 °F 1013.1 in SW 8.0 mph 8.0 mph 83 % 0.0 in 0.0 W/m2 CLR
00:59 9.2 °F 5.9 °F 1013.1 in SW 6.4 mph 6.4 mph 80 % 0.0 in 0.0 W/m2 CLR
01:04 9.6 °F 5.8 °F 1013.1 in SW 7.4 mph 7.4 mph 77 % 0.0 in 0.0 W/m2 CLR
01:09 9.7 °F 5.6 °F 1013.1 in Calm     76 % 0.0 in 0.0 W/m2 CLR
01:14 9.3 °F 5.5 °F 1013.1 in WSW 11.1 mph 11.1 mph 77 % 0.0 in 0.0 W/m2 CLR
01:19 9.3 °F 5.6 °F 1012.8 in SW 9.3 mph 9.3 mph 78 % 0.0 in 0.0 W/m2 CLR
01:24 9.5 °F 5.7 °F 1012.8 in WSW 13.0 mph 13.0 mph 77 % 0.0 in 0.0 W/m2 CLR
01:29 9.7 °F 5.7 °F 1012.8 in WSW 9.7 mph 9.7 mph 76 % 0.0 in 0.0 W/m2 CLR
01:34 10.1 °F 5.9 °F 1012.8 in WSW 9.3 mph 9.3 mph 75 % 0.0 in 0.0 W/m2 CLR
01:39 10.1 °F 5.7 °F 1012.4 in SW 13.0 mph 13.0 mph 74 % 0.0 in 0.0 W/m2 CLR
01:44 10.2 °F 5.8 °F 1012.4 in WSW 9.7 mph 9.7 mph 74 % 0.0 in 0.0 W/m2 CLR
01:49 10.1 °F 5.7 °F 1012.4 in WSW 6.4 mph 6.4 mph 74 % 0.0 in 0.0 W/m2 CLR
01:54 10.2 °F 5.7 °F 1012.4 in WSW 13.0 mph 13.0 mph 74 % 0.0 in 0.0 W/m2 CLR
01:59 10.6 °F 5.9 °F 1012.1 in SW 18.5 mph 18.5 mph 73 % 0.0 in 0.0 W/m2 CLR
02:04 10.4 °F 5.6 °F 1012.1 in SW 11.3 mph 11.3 mph 72 % 0.0 in 0.0 W/m2 CLR
02:09 10.1 °F 5.7 °F 1012.1 in WSW 7.4 mph 7.4 mph 74 % 0.0 in 0.0 W/m2 CLR
02:14 10.2 °F 5.7 °F 1012.1 in WSW 7.4 mph 7.4 mph 74 % 0.0 in 0.0 W/m2 CLR
02:19 10.6 °F 5.9 °F 1012.1 in WSW 11.3 mph 11.3 mph 73 % 0.0 in 0.0 W/m2 CLR
02:24 10.8 °F 6.0 °F 1012.1 in WSW 13.0 mph 13.0 mph 72 % 0.0 in 0.0 W/m2 CLR
02:29 11.1 °F 6.2 °F 1012.1 in WSW 16.7 mph 16.7 mph 72 % 0.0 in 0.0 W/m2 CLR
02:34 11.2 °F 6.1 °F 1012.1 in WSW 13.0 mph 13.0 mph 71 % 0.0 in 0.0 W/m2 CLR
02:39 11.2 °F 6.2 °F 1012.1 in WSW 13.0 mph 13.0 mph 71 % 0.0 in 0.0 W/m2 CLR
02:44 11.4 °F 6.4 °F 1011.7 in WSW 11.1 mph 11.1 mph 71 % 0.0 in 0.0 W/m2 CLR
02:49 11.6 °F 6.3 °F 1011.7 in WSW 14.8 mph 14.8 mph 70 % 0.0 in 0.0 W/m2 CLR
02:54 11.5 °F 6.2 °F 1011.4 in WSW 13.0 mph 13.0 mph 70 % 0.0 in 0.0 W/m2 CLR
02:59 11.6 °F 6.3 °F 1011.4 in WSW 9.3 mph 9.3 mph 70 % 0.0 in 0.0 W/m2 CLR
03:04 11.5 °F 6.2 °F 1011.4 in Calm     70 % 0.0 in 0.0 W/m2 CLR
03:09 11.3 °F 6.1 °F 1011.4 in WSW 5.6 mph 5.6 mph 70 % 0.0 in 0.0 W/m2 CLR
03:14 10.4 °F 5.8 °F 1011.1 in SW 18.5 mph 18.5 mph 73 % 0.0 in 0.0 W/m2 CLR
03:19 10.6 °F 6.2 °F 1011.4 in SW 13.0 mph 13.0 mph 74 % 0.0 in 0.0 W/m2 CLR
03:24 11.2 °F 6.3 °F 1011.4 in WSW 14.8 mph 14.8 mph 72 % 0.0 in 0.0 W/m2 CLR
03:29 11.5 °F 6.4 °F 1011.4 in WSW 5.6 mph   71 % 0.0 in 0.0 W/m2 CLR
03:34 11.7 °F 6.4 °F 1011.1 in WSW 3.2 mph 3.2 mph 70 % 0.0 in 0.0 W/m2 CLR
03:39 11.0 °F 6.2 °F 1011.4 in Calm     72 % 0.0 in 0.0 W/m2 CLR
03:45 10.8 °F 6.2 °F 1011.4 in West 5.6 mph 5.6 mph 73 % 0.0 in 0.0 W/m2 CLR
03:50 10.8 °F 6.3 °F 1011.1 in Calm     74 % 0.0 in 0.0 W/m2 CLR
03:55 11.6 °F 6.7 °F 1010.7 in WSW 9.3 mph 9.3 mph 72 % 0.0 in 0.0 W/m2 CLR
04:00 12.8 °F 6.8 °F 1010.7 in West 18.5 mph 18.5 mph 67 % 0.0 in 0.0 W/m2 CLR
04:05 13.0 °F 6.6 °F 1010.7 in WSW 7.4 mph 8.5 mph 65 % 0.0 in 0.0 W/m2 CLR
04:10 13.1 °F 6.6 °F 1010.4 in Calm     65 % 0.0 in 0.0 W/m2 CLR
04:15 13.1 °F 6.7 °F 1010.7 in Calm     65 % 0.0 in 0.0 W/m2 CLR
04:20 12.9 °F 6.7 °F 1010.4 in Calm     66 % 0.0 in 0.0 W/m2 CLR
04:25 12.4 °F 6.5 °F 1010.4 in Calm   1.4 mph 67 % 0.0 in 0.0 W/m2 CLR
04:30 12.3 °F 6.6 °F 1010.7 in West 11.1 mph 11.1 mph 68 % 0.0 in 0.0 W/m2 CLR
04:35 12.6 °F 6.6 °F 1011.1 in West 9.3 mph 9.3 mph 67 % 0.0 in 0.0 W/m2 CLR
04:40 12.4 °F 6.7 °F 1011.1 in Calm     68 % 0.0 in 0.0 W/m2 CLR
04:45 12.1 °F 6.6 °F 1011.1 in Calm     69 % 0.0 in 0.0 W/m2 CLR
04:50 11.5 °F 6.2 °F 1011.1 in Calm     70 % 0.0 in 0.0 W/m2 CLR
04:55 11.0 °F 6.2 °F 1011.1 in Calm     72 % 0.0 in 0.0 W/m2 CLR
05:00 10.4 °F 6.0 °F 1011.1 in East 5.6 mph 5.6 mph 74 % 0.0 in 0.0 W/m2 CLR
05:05 10.3 °F 5.8 °F 1011.1 in Calm     74 % 0.0 in 0.0 W/m2 CLR
05:10 10.2 °F 5.9 °F 1010.7 in Calm     75 % 0.0 in 0.0 W/m2 CLR
05:15 10.3 °F 6.1 °F 1010.7 in Calm     75 % 0.0 in 0.0 W/m2 CLR
05:20 10.4 °F 6.2 °F 1011.1 in South 1.9 mph   75 % 0.0 in 0.0 W/m2 CLR
05:25 10.5 °F 6.3 °F 1011.1 in West 1.6 mph   75 % 0.0 in 0.0 W/m2 CLR
05:30 11.4 °F 6.9 °F 1010.7 in West 16.7 mph 16.7 mph 74 % 0.0 in 0.0 W/m2 CLR
05:35 13.1 °F 7.3 °F 1011.1 in West 13.0 mph 13.0 mph 68 % 0.0 in 0.0 W/m2 CLR
05:40 14.0 °F 7.3 °F 1010.7 in WNW 14.5 mph 14.5 mph 64 % 0.0 in 0.0 W/m2 CLR
05:45 14.3 °F 7.2 °F 1010.4 in West 19.3 mph 19.3 mph 62 % 0.0 in 0.0 W/m2 CLR
05:50 14.5 °F 7.3 °F 1010.7 in West 20.4 mph 20.4 mph 62 % 0.0 in 0.0 W/m2 CLR
05:55 14.3 °F 7.3 °F 1010.7 in WNW 14.8 mph 14.8 mph 63 % 0.0 in 0.0 W/m2 CLR
06:00 14.2 °F 7.3 °F 1010.7 in WNW 16.7 mph 16.7 mph 63 % 0.0 in 0.0 W/m2 CLR
06:05 14.3 °F 7.3 °F 1010.7 in WNW 13.0 mph 13.0 mph 63 % 0.0 in 0.0 W/m2 CLR
06:10 14.3 °F 7.1 °F 1010.7 in NW 16.7 mph 16.7 mph 62 % 0.0 in 0.0 W/m2 CLR
06:15 14.1 °F 7.2 °F 1010.7 in NW 16.7 mph 16.7 mph 63 % 0.0 in 0.0 W/m2 CLR
06:20 14.3 °F 7.2 °F 1010.7 in NW 24.1 mph 24.1 mph 62 % 0.0 in 0.0 W/m2 CLR
06:25 14.3 °F 7.4 °F 1010.7 in NW 9.3 mph 9.3 mph 63 % 0.0 in 0.0 W/m2 CLR
06:30 14.1 °F 7.2 °F 1011.1 in NW 13.0 mph 13.0 mph 63 % 0.0 in 0.0 W/m2 CLR
06:35 14.3 °F 7.2 °F 1010.7 in WNW 24.1 mph 24.1 mph 62 % 0.0 in 0.0 W/m2 CLR
06:40 14.5 °F 7.3 °F 1010.7 in WNW 22.5 mph 22.5 mph 62 % 0.0 in 0.0 W/m2 CLR
06:45 14.4 °F 7.4 °F 1010.7 in WNW 18.5 mph 18.5 mph 63 % 0.0 in 0.0 W/m2 CLR
06:50 14.2 °F 7.3 °F 1010.7 in NW 14.8 mph 14.8 mph 63 % 0.0 in 0.0 W/m2 CLR
06:55 14.1 °F 7.1 °F 1010.7 in NW 9.7 mph 9.7 mph 63 % 0.0 in 0.0 W/m2 CLR
07:00 14.0 °F 7.3 °F 1011.1 in NW 8.0 mph 8.0 mph 64 % 0.0 in 0.0 W/m2 CLR
07:05 13.9 °F 7.2 °F 1011.1 in NW 11.1 mph 11.1 mph 64 % 0.0 in 0.0 W/m2 CLR
07:10 13.8 °F 7.1 °F 1011.1 in WNW 14.8 mph 14.8 mph 64 % 0.0 in 0.0 W/m2 CLR
07:15 13.9 °F 7.2 °F 1011.1 in WNW 13.0 mph 13.0 mph 64 % 0.0 in 0.0 W/m2 CLR
07:20 13.7 °F 7.0 °F 1011.4 in NW 13.0 mph 13.0 mph 64 % 0.0 in 0.0 W/m2 CLR
07:25 13.8 °F 7.1 °F 1011.4 in NNW 7.4 mph 7.4 mph 64 % 0.0 in 0.0 W/m2 CLR
07:30 13.7 °F 7.1 °F 1011.4 in NW 7.4 mph 7.4 mph 64 % 0.0 in 0.0 W/m2 CLR
07:35 13.7 °F 7.1 °F 1011.4 in NW 9.3 mph 9.3 mph 64 % 0.0 in 0.0 W/m2 CLR
07:40 13.6 °F 7.2 °F 1011.4 in WNW 11.1 mph 11.1 mph 65 % 0.0 in 0.0 W/m2 CLR
07:45 13.8 °F 7.1 °F 1011.4 in WNW 18.5 mph 18.5 mph 64 % 0.0 in 0.0 W/m2 CLR
07:50 13.9 °F 7.2 °F 1011.7 in WNW 8.0 mph 8.0 mph 64 % 0.0 in 0.0 W/m2 CLR
07:55 13.8 °F 7.1 °F 1011.7 in NW 1.9 mph   64 % 0.0 in 0.0 W/m2 CLR
08:00 13.8 °F 7.1 °F 1012.1 in NNW 11.1 mph 11.1 mph 64 % 0.0 in 0.0 W/m2 OVC
08:06 13.7 °F 7.2 °F 1012.1 in NW 8.0 mph 8.0 mph 65 % 0.0 in 0.0 W/m2 OVC
08:11 13.7 °F 7.2 °F 1012.1 in WNW 16.7 mph 16.7 mph 65 % 0.0 in 0.0 W/m2 OVC
08:16 13.7 °F 7.2 °F 1012.1 in WNW 11.1 mph 11.1 mph 65 % 0.0 in 7.0 W/m2 BKN
08:21 13.7 °F 7.4 °F 1012.4 in WNW 5.6 mph 5.6 mph 66 % 0.0 in 12.0 W/m2 BKN
08:26 13.6 °F 7.4 °F 1012.4 in WNW 11.1 mph 11.1 mph 66 % 0.0 in 21.0 W/m2 BKN
08:31 13.8 °F 7.6 °F 1012.4 in WNW 22.2 mph 22.2 mph 66 % 0.0 in 28.0 W/m2 BKN
08:36 14.1 °F 7.6 °F 1012.4 in WNW 11.1 mph 11.1 mph 65 % 0.0 in 40.0 W/m2 BKN
08:41 14.1 °F 7.6 °F 1012.8 in WNW 9.3 mph 9.3 mph 65 % 0.0 in 54.0 W/m2 SCT
08:46 14.0 °F 7.7 °F 1012.4 in WNW 8.0 mph 8.0 mph 66 % 0.0 in 67.0 W/m2 FEW
08:51 13.9 °F 7.8 °F 1012.8 in WNW 9.3 mph 9.3 mph 67 % 0.0 in 76.0 W/m2 FEW
08:56 13.8 °F 7.8 °F 1013.1 in NW 5.6 mph 5.6 mph 67 % 0.0 in 105.0 W/m2 CLR
09:01 14.1 °F 7.8 °F 1013.1 in Calm     66 % 0.0 in 123.0 W/m2 CLR
09:06 14.2 °F 7.9 °F 1012.8 in Calm     66 % 0.0 in 144.0 W/m2 CLR
09:11 14.4 °F 7.9 °F 1012.8 in WNW 5.6 mph   65 % 0.0 in 165.0 W/m2 CLR
09:16 14.7 °F 8.0 °F 1012.8 in West 8.0 mph 8.0 mph 64 % 0.0 in 116.0 W/m2 CLR
09:21 14.9 °F 7.9 °F 1012.8 in West 16.7 mph 16.7 mph 63 % 0.0 in 128.0 W/m2 CLR
09:26 15.1 °F 7.8 °F 1012.8 in West 16.7 mph 16.7 mph 62 % 0.0 in 118.0 W/m2 CLR
09:31 15.0 °F 8.0 °F 1013.4 in WNW 22.2 mph 22.2 mph 63 % 0.0 in 90.0 W/m2 CLR
09:32 14.9 °F 7.9 °F 1013.1 in WNW 20.4 mph 20.4 mph 63 % 0.0 in 95.0 W/m2 CLR
09:37 14.8 °F 7.8 °F 1013.1 in WNW 13.0 mph 13.0 mph 63 % 0.0 in 42.0 W/m2 FEW
09:42 14.8 °F 8.1 °F 1013.1 in West 9.3 mph 9.3 mph 64 % 0.0 in 174.0 W/m2 SCT
09:47 14.9 °F 8.2 °F 1013.4 in WNW 22.2 mph 22.2 mph 64 % 0.0 in 186.0 W/m2 FEW
09:52 15.1 °F 8.3 °F 1013.4 in NW 11.1 mph 11.1 mph 64 % 0.0 in 230.0 W/m2 CLR
09:57 15.3 °F 8.3 °F 1013.4 in NW 11.1 mph 11.1 mph 63 % 0.0 in 250.0 W/m2 CLR
10:02 15.6 °F 8.6 °F 1013.4 in NW 18.5 mph 18.5 mph 63 % 0.0 in 269.0 W/m2 CLR
10:07 15.7 °F 8.7 °F 1013.8 in NW 16.7 mph 16.7 mph 63 % 0.0 in 292.0 W/m2 CLR
10:12 15.8 °F 8.6 °F 1013.8 in NW 11.1 mph 11.1 mph 62 % 0.0 in 350.0 W/m2 CLR
10:17 15.9 °F 8.9 °F 1013.8 in NNW 19.3 mph 19.3 mph 63 % 0.0 in 359.0 W/m2 CLR
10:22 15.8 °F 8.8 °F 1013.8 in NNW 11.1 mph 11.1 mph 63 % 0.0 in 308.0 W/m2 CLR
10:27 15.8 °F 8.8 °F 1013.8 in NNW 13.0 mph 13.0 mph 63 % 0.0 in 346.0 W/m2 CLR
10:32 15.9 °F 8.9 °F 1013.8 in NNW 14.8 mph 14.8 mph 63 % 0.0 in 202.0 W/m2 CLR
10:37 16.0 °F 8.9 °F 1013.8 in NNW 11.1 mph 11.1 mph 63 % 0.0 in 336.0 W/m2 CLR
10:42 16.0 °F 9.2 °F 1014.1 in NNW 7.4 mph 7.4 mph 64 % 0.0 in 148.0 W/m2 CLR
10:47 15.9 °F 8.9 °F 1014.1 in NNW 5.6 mph 5.6 mph 63 % 0.0 in 174.0 W/m2 CLR
10:52 15.9 °F 9.1 °F 1014.1 in NNW 11.3 mph 11.3 mph 64 % 0.0 in 260.0 W/m2 CLR
10:57 15.9 °F 9.4 °F 1014.1 in North 8.0 mph 8.0 mph 65 % 0.0 in 221.0 W/m2 CLR
11:02 16.1 °F 9.8 °F 1014.1 in North 1.6 mph   66 % 0.0 in 229.0 W/m2 CLR
11:07 16.3 °F 9.4 °F 1014.1 in NNW 14.8 mph 14.8 mph 64 % 0.0 in 241.0 W/m2 CLR
11:12 16.2 °F 9.4 °F 1014.1 in NNW 18.5 mph 18.5 mph 64 % 0.0 in 265.0 W/m2 CLR
11:17 16.2 °F 9.6 °F 1014.1 in NNW 16.7 mph 16.7 mph 65 % 0.0 in 302.0 W/m2 CLR
11:22 16.2 °F 9.6 °F 1014.1 in NNW 9.3 mph 9.3 mph 65 % 0.0 in 192.0 W/m2 CLR
11:27 16.2 °F 9.3 °F 1014.1 in NNW 13.0 mph 13.0 mph 64 % 0.0 in 225.0 W/m2 CLR
11:32 16.1 °F 9.3 °F 1014.1 in North 9.3 mph 9.3 mph 64 % 0.0 in 171.0 W/m2 CLR
11:37 16.1 °F 9.7 °F 1014.1 in North 11.1 mph 11.1 mph 66 % 0.0 in 174.0 W/m2 CLR
11:42 16.0 °F 9.4 °F 1014.1 in NNW 14.8 mph 14.8 mph 65 % 0.0 in 264.0 W/m2 CLR
11:47 16.1 °F 10.0 °F 1014.1 in NNW 5.6 mph 5.6 mph 67 % 0.0 in 264.0 W/m2 CLR
11:52 16.2 °F 9.6 °F 1014.1 in NNW 13.0 mph 13.0 mph 65 % 0.0 in 176.0 W/m2 CLR
11:54 16.2 °F 9.3 °F 1014.1 in North 7.4 mph 7.4 mph 64 % 0.0 in 176.0 W/m2 CLR
11:59 16.2 °F 9.6 °F 1014.1 in NNW 9.3 mph 9.3 mph 65 % 0.0 in 156.0 W/m2 CLR
12:04 16.2 °F 9.6 °F 1014.1 in NNW 11.3 mph 11.3 mph 65 % 0.0 in 139.0 W/m2 CLR
12:09 16.1 °F 9.5 °F 1014.4 in NNW 18.5 mph 18.5 mph 65 % 0.0 in 169.0 W/m2 CLR
12:14 16.1 °F 9.5 °F 1014.4 in NNW 18.5 mph 18.5 mph 65 % 0.0 in 81.0 W/m2 CLR
12:19 15.9 °F 9.6 °F 1014.4 in NNW 18.5 mph 18.5 mph 66 % 0.0 in 84.0 W/m2 CLR
12:24 15.6 °F 9.7 °F 1014.4 in North 17.7 mph 17.7 mph 68 % 0.0 in 88.0 W/m2 CLR
12:29 15.3 °F 9.6 °F 1014.4 in North 24.1 mph 24.1 mph 69 % 0.0 in 132.0 W/m2 CLR
12:34 14.9 °F 9.9 °F 1014.4 in North 18.5 mph 18.5 mph 72 % 0.0 in 200.0 W/m2 CLR
12:39 14.8 °F 10.0 °F 1014.1 in North 16.7 mph 16.7 mph 73 % 0.0 in 237.0 W/m2 CLR
12:45 14.7 °F 10.1 °F 1014.1 in North 22.2 mph 22.2 mph 74 % 0.0 in 258.0 W/m2 CLR
12:50 14.7 °F 10.3 °F 1014.1 in North 18.5 mph 18.5 mph 75 % 0.0 in 220.0 W/m2 CLR
12:55 14.7 °F 10.5 °F 1014.1 in NNE 18.5 mph 18.5 mph 76 % 0.0 in 232.0 W/m2 CLR
13:00 14.3 °F 10.7 °F 1013.8 in NNE 14.5 mph 14.5 mph 79 % 0.0 in 213.0 W/m2 CLR
13:05 14.1 °F 10.7 °F 1013.8 in NE 20.4 mph 20.4 mph 80 % 0.0 in 251.0 W/m2 CLR
13:10 14.0 °F 10.8 °F 1014.1 in NNE 16.7 mph 16.7 mph 81 % 0.0 in 318.0 W/m2 CLR
13:15 14.0 °F 10.8 °F 1013.8 in NNE 5.6 mph 5.6 mph 81 % 0.0 in 406.0 W/m2 CLR
13:20 14.2 °F 10.9 °F 1013.8 in North 5.6 mph 5.6 mph 81 % 0.0 in 366.0 W/m2 CLR
13:25 14.3 °F 11.1 °F 1013.8 in Calm     81 % 0.0 in 241.0 W/m2 CLR
13:30 14.3 °F 10.9 °F 1013.4 in Calm     80 % 0.0 in 302.0 W/m2 CLR
13:35 14.4 °F 10.8 °F 1013.4 in Calm     79 % 0.0 in 174.0 W/m2 CLR
13:40 14.3 °F 10.6 °F 1013.4 in North 5.6 mph 5.6 mph 78 % 0.0 in 216.0 W/m2 CLR
13:45 14.3 °F 10.7 °F 1013.4 in Calm     79 % 0.0 in 213.0 W/m2 CLR
13:50 14.4 °F 10.8 °F 1013.4 in Calm     79 % 0.0 in 260.0 W/m2 CLR
13:55 14.6 °F 10.9 °F 1013.4 in Calm     79 % 0.0 in 359.0 W/m2 CLR
14:00 14.7 °F 11.1 °F 1013.4 in Calm     79 % 0.0 in 309.0 W/m2 CLR
14:05 14.9 °F 11.1 °F 1013.4 in Calm     78 % 0.0 in 443.0 W/m2 CLR
14:10 15.0 °F 11.2 °F 1013.1 in Calm     78 % 0.0 in 362.0 W/m2 CLR
14:15 15.2 °F 11.2 °F 1013.1 in Calm     77 % 0.0 in 362.0 W/m2 CLR
14:20 15.2 °F 11.0 °F 1013.1 in Calm     76 % 0.0 in 265.0 W/m2 CLR
14:25 15.1 °F 10.7 °F 1013.1 in Calm     75 % 0.0 in 232.0 W/m2 CLR
14:30 15.1 °F 10.9 °F 1012.8 in Calm     76 % 0.0 in 255.0 W/m2 CLR
14:35 15.1 °F 10.7 °F 1013.1 in Calm     75 % 0.0 in 295.0 W/m2 CLR
14:36 15.1 °F 10.8 °F 1013.1 in Calm     76 % 0.0 in 279.0 W/m2 CLR
14:41 15.1 °F 10.7 °F 1013.1 in NNE 5.6 mph 5.6 mph 75 % 0.0 in 239.0 W/m2 CLR
14:46 15.1 °F 10.7 °F 1013.1 in Calm     75 % 0.0 in 202.0 W/m2 CLR
14:51 15.1 °F 10.7 °F 1013.1 in Calm     75 % 0.0 in 202.0 W/m2 CLR
14:56 15.0 °F 10.4 °F 1013.1 in Calm     74 % 0.0 in 174.0 W/m2 CLR
15:01 15.0 °F 10.6 °F 1013.1 in Calm     75 % 0.0 in 178.0 W/m2 CLR
15:06 15.0 °F 10.6 °F 1013.1 in Calm     75 % 0.0 in 148.0 W/m2 CLR
15:11 15.0 °F 10.6 °F 1013.1 in Calm     75 % 0.0 in 113.0 W/m2 CLR
15:16 14.9 °F 10.5 °F 1013.1 in NE 5.6 mph 5.6 mph 75 % 0.0 in 93.0 W/m2 CLR
15:18 14.8 °F 10.4 °F 1013.1 in NE 5.6 mph 5.6 mph 75 % 0.0 in 88.0 W/m2 CLR
15:23 14.7 °F 10.3 °F 1013.1 in Calm     75 % 0.0 in 77.0 W/m2 CLR
15:28 14.6 °F 10.4 °F 1013.4 in NE 5.6 mph 5.6 mph 76 % 0.0 in 47.0 W/m2 FEW
15:33 14.4 °F 10.2 °F 1013.4 in Calm     76 % 0.0 in 40.0 W/m2 SCT
15:38 14.3 °F 10.3 °F 1013.8 in Calm     77 % 0.0 in 35.0 W/m2 BKN
15:43 14.2 °F 10.4 °F 1013.8 in Calm     78 % 0.0 in 32.0 W/m2 BKN
15:48 14.1 °F 10.3 °F 1013.8 in Calm     78 % 0.0 in 30.0 W/m2 BKN
15:53 14.1 °F 10.1 °F 1013.4 in Calm     77 % 0.0 in 47.0 W/m2 BKN
15:58 14.1 °F 10.1 °F 1013.8 in Calm     77 % 0.0 in 46.0 W/m2 BKN
16:03 14.1 °F 10.3 °F 1013.8 in Calm     78 % 0.0 in 46.0 W/m2 BKN
16:08 14.0 °F 10.2 °F 1013.4 in Calm     78 % 0.0 in 58.0 W/m2 SCT
16:13 14.0 °F 10.2 °F 1013.4 in Calm     78 % 0.0 in 95.0 W/m2 SCT
16:18 14.0 °F 10.2 °F 1013.4 in Calm     78 % 0.0 in 88.0 W/m2 FEW
16:23 14.1 °F 10.4 °F 1013.4 in Calm     79 % 0.0 in 63.0 W/m2 FEW
16:28 14.1 °F 10.3 °F 1013.4 in Calm     78 % 0.0 in 142.0 W/m2 FEW
16:31 14.1 °F 10.3 °F 1013.4 in Calm     78 % 0.0 in 172.0 W/m2 CLR
16:36 14.2 °F 10.4 °F 1013.1 in Calm     78 % 0.0 in 165.0 W/m2 CLR
16:41 14.3 °F 10.3 °F 1013.1 in Calm     77 % 0.0 in 193.0 W/m2 CLR
16:46 14.4 °F 10.4 °F 1013.1 in Calm     77 % 0.0 in 167.0 W/m2 CLR
16:51 14.4 °F 10.2 °F 1013.1 in ENE 3.2 mph 3.2 mph 76 % 0.0 in 153.0 W/m2 CLR
16:56 14.3 °F 10.2 °F 1013.1 in Calm     76 % 0.0 in 167.0 W/m2 CLR
17:01 14.3 °F 10.2 °F 1013.1 in Calm     76 % 0.0 in 107.0 W/m2 CLR
17:06 14.3 °F 10.1 °F 1013.1 in Calm     76 % 0.0 in 91.0 W/m2 CLR
17:11 14.2 °F 10.0 °F 1013.1 in Calm     76 % 0.0 in 77.0 W/m2 CLR
17:16 14.1 °F 10.1 °F 1013.1 in Calm     77 % 0.0 in 63.0 W/m2 FEW
17:21 14.0 °F 10.1 °F 1013.1 in Calm     77 % 0.0 in 63.0 W/m2 SCT
17:26 13.9 °F 10.0 °F 1012.8 in Calm     77 % 0.0 in 53.0 W/m2 SCT
17:31 13.8 °F 9.9 °F 1012.8 in Calm     77 % 0.0 in 46.0 W/m2 SCT
17:36 13.8 °F 9.8 °F 1012.8 in Calm     77 % 0.0 in 37.0 W/m2 BKN
17:41 13.7 °F 9.8 °F 1012.8 in Calm     77 % 0.0 in 33.0 W/m2 BKN
17:46 13.7 °F 9.9 °F 1012.8 in Calm     78 % 0.0 in 28.0 W/m2 BKN
17:51 13.6 °F 9.8 °F 1012.8 in Calm     78 % 0.0 in 26.0 W/m2 BKN
17:56 13.4 °F 9.9 °F 1012.8 in Calm     79 % 0.0 in 23.0 W/m2 BKN
18:01 13.4 °F 9.8 °F 1012.8 in Calm     79 % 0.0 in 16.0 W/m2 BKN
18:06 13.2 °F 9.7 °F 1013.1 in Calm     79 % 0.0 in 11.0 W/m2 BKN
18:11 13.1 °F 9.7 °F 1013.1 in Calm     80 % 0.0 in 7.0 W/m2 BKN
18:16 13.1 °F 9.7 °F 1013.1 in Calm     80 % 0.0 in 0.0 W/m2 OVC
18:21 12.9 °F 9.5 °F 1013.1 in Calm     80 % 0.0 in 0.0 W/m2 OVC
18:26 12.8 °F 9.7 °F 1013.1 in Calm     81 % 0.0 in 0.0 W/m2 OVC
18:32 12.7 °F 9.6 °F 1013.1 in Calm     81 % 0.0 in 0.0 W/m2 CLR
18:37 12.7 °F 9.7 °F 1013.1 in Calm     82 % 0.0 in 0.0 W/m2 CLR
18:42 12.6 °F 9.6 °F 1013.1 in Calm     82 % 0.0 in 0.0 W/m2 CLR
18:47 12.5 °F 9.5 °F 1013.1 in Calm     82 % 0.0 in 0.0 W/m2 CLR
18:52 12.4 °F 9.6 °F 1013.1 in Calm     83 % 0.0 in 0.0 W/m2 CLR
18:57 12.3 °F 9.5 °F 1013.1 in Calm     83 % 0.0 in 0.0 W/m2 CLR
19:02 12.2 °F 9.6 °F 1012.8 in Calm     84 % 0.0 in 0.0 W/m2 CLR
19:07 12.1 °F 9.5 °F 1013.1 in Calm     84 % 0.0 in 0.0 W/m2 CLR
19:12 11.9 °F 9.3 °F 1012.8 in Calm     84 % 0.0 in 0.0 W/m2 CLR
19:17 11.7 °F 9.3 °F 1012.8 in Calm     85 % 0.0 in 0.0 W/m2 CLR
19:22 11.5 °F 9.1 °F 1012.8 in Calm     85 % 0.0 in 0.0 W/m2 CLR
19:27 11.4 °F 9.1 °F 1012.8 in Calm     86 % 0.0 in 0.0 W/m2 CLR
19:32 11.2 °F 8.9 °F 1012.8 in Calm     86 % 0.0 in 0.0 W/m2 CLR
19:37 11.1 °F 9.1 °F 1012.8 in Calm     87 % 0.0 in 0.0 W/m2 CLR
19:42 11.0 °F 8.9 °F 1012.8 in Calm     87 % 0.0 in 0.0 W/m2 CLR
19:47 10.8 °F 8.7 °F 1012.8 in Calm     87 % 0.0 in 0.0 W/m2 CLR
19:52 10.7 °F 8.7 °F 1012.4 in Calm     87 % 0.0 in 0.0 W/m2 CLR
19:57 10.6 °F 8.7 °F 1012.4 in Calm     88 % 0.0 in 0.0 W/m2 CLR
20:02 10.4 °F 8.6 °F 1012.4 in Calm     88 % 0.0 in 0.0 W/m2 CLR
20:07 10.3 °F 8.4 °F 1012.4 in Calm     88 % 0.0 in 0.0 W/m2 CLR
20:12 10.2 °F 8.3 °F 1012.4 in Calm     88 % 0.0 in 0.0 W/m2 CLR
20:17 10.2 °F 8.5 °F 1012.4 in Calm     89 % 0.0 in 0.0 W/m2 CLR
20:22 10.1 °F 8.4 °F 1012.4 in Calm     89 % 0.0 in 0.0 W/m2 CLR
20:27 10.0 °F 8.3 °F 1012.4 in Calm     89 % 0.0 in 0.0 W/m2 CLR
20:32 10.3 °F 8.7 °F 1012.4 in WSW 6.4 mph 6.4 mph 90 % 0.0 in 0.0 W/m2 CLR
20:37 10.4 °F 8.9 °F 1012.4 in Calm     90 % 0.0 in 0.0 W/m2 CLR
20:42 10.4 °F 8.7 °F 1012.4 in Calm     89 % 0.0 in 0.0 W/m2 CLR
20:47 10.4 °F 8.7 °F 1012.4 in Calm     89 % 0.0 in 0.0 W/m2 CLR
20:52 10.3 °F 8.6 °F 1012.1 in Calm     89 % 0.0 in 0.0 W/m2 CLR
20:57 10.3 °F 8.4 °F 1012.1 in Calm     88 % 0.0 in 0.0 W/m2 CLR
21:02 10.2 °F 8.4 °F 1012.1 in Calm     89 % 0.0 in 0.0 W/m2 CLR
21:07 10.2 °F 8.4 °F 1012.1 in Calm     89 % 0.0 in 0.0 W/m2 CLR
21:12 10.0 °F 8.3 °F 1012.1 in Calm     89 % 0.0 in 0.0 W/m2 CLR
21:17 10.2 °F 8.7 °F 1012.1 in WSW 5.6 mph   90 % 0.0 in 0.0 W/m2 CLR
21:22 10.4 °F 8.9 °F 1011.7 in Calm     90 % 0.0 in 0.0 W/m2 CLR
21:27 10.6 °F 8.8 °F 1011.7 in Calm     89 % 0.0 in 0.0 W/m2 CLR
21:32 10.7 °F 8.9 °F 1011.7 in Calm     89 % 0.0 in 0.0 W/m2 CLR
21:37 10.6 °F 8.7 °F 1011.7 in Calm     88 % 0.0 in 0.0 W/m2 CLR
21:42 10.6 °F 8.7 °F 1011.7 in Calm     88 % 0.0 in 0.0 W/m2 CLR
21:47 10.4 °F 8.5 °F 1011.7 in Calm     88 % 0.0 in 0.0 W/m2 CLR
21:52 10.2 °F 8.3 °F 1011.4 in Calm     88 % 0.0 in 0.0 W/m2 CLR
21:57 9.9 °F 8.1 °F 1011.4 in Calm     88 % 0.0 in 0.0 W/m2 CLR
22:02 9.9 °F 8.2 °F 1011.7 in Calm     89 % 0.0 in 0.0 W/m2 CLR
22:07 9.9 °F 8.2 °F 1011.7 in Calm     89 % 0.0 in 0.0 W/m2 CLR
22:12 9.7 °F 8.0 °F 1011.4 in Calm     89 % 0.0 in 0.0 W/m2 CLR
22:17 9.6 °F 7.8 °F 1011.4 in Calm     89 % 0.0 in 0.0 W/m2 CLR
22:22 9.6 °F 8.1 °F 1011.4 in Calm     90 % 0.0 in 0.0 W/m2 CLR
22:27 9.8 °F 8.2 °F 1011.4 in Calm     90 % 0.0 in 0.0 W/m2 CLR
22:32 9.8 °F 8.1 °F 1011.4 in Calm     89 % 0.0 in 0.0 W/m2 CLR
22:37 9.6 °F 7.8 °F 1011.4 in Calm     89 % 0.0 in 0.0 W/m2 CLR
22:42 9.8 °F 8.2 °F 1011.4 in Calm     90 % 0.0 in 0.0 W/m2 CLR
22:47 10.1 °F 8.3 °F 1011.4 in Calm     89 % 0.0 in 0.0 W/m2 CLR
22:52 10.0 °F 7.9 °F 1011.4 in Calm     87 % 0.0 in 0.0 W/m2 CLR
22:57 9.8 °F 7.7 °F 1011.4 in Calm     87 % 0.0 in 0.0 W/m2 CLR
23:02 9.7 °F 7.8 °F 1011.4 in Calm     88 % 0.0 in 0.0 W/m2 CLR
23:07 9.6 °F 7.7 °F 1011.1 in Calm     88 % 0.0 in 0.0 W/m2 CLR
23:12 9.4 °F 7.6 °F 1011.1 in Calm     88 % 0.0 in 0.0 W/m2 CLR
23:17 9.3 °F 7.6 °F 1011.1 in Calm     89 % 0.0 in 0.0 W/m2 CLR
23:22 9.2 °F 7.4 °F 1011.1 in Calm     89 % 0.0 in 0.0 W/m2 CLR
23:27 9.1 °F 7.5 °F 1011.1 in Calm     90 % 0.0 in 0.0 W/m2 CLR
23:32 8.9 °F 7.3 °F 1010.7 in Calm     90 % 0.0 in 0.0 W/m2 CLR
23:37 8.8 °F 7.3 °F 1010.7 in Calm     90 % 0.0 in 0.0 W/m2 CLR
23:42 8.8 °F 7.2 °F 1010.7 in Calm     90 % 0.0 in 0.0 W/m2 CLR
23:48 8.7 °F 7.1 °F 1010.7 in Calm     90 % 0.0 in 0.0 W/m2 CLR
23:53 8.6 °F 7.2 °F 1010.7 in Calm     91 % 0.0 in 0.0 W/m2 CLR
23:58 8.6 °F 7.2 °F 1010.7 in Calm     91 % 0.0 in 0.0 W/m2 CLR
Lo Temps de Massalio
Compliments of Weather Underground - 1.25 mb